Time;durP1;ratioP1;P1;durP2;ratioP2;P2;SDS_P1;SDS_P2;PMS_P1;PMS_P2;Temp;Humidity;BMP_temperature;BMP_pressure;BME280_temperature;BME280_humidity;BME280_pressure;Samples;Min_cycle;Max_cycle;Signal;HPM_P1;HPM_P2
2023/07/17 00:02:18;;;;;;;34.08;5.10;;;;;;;;;;5057617;28;20047;-74
2023/07/17 00:04:44;;;;;;;34.35;5.47;;;;;;;;;;5073839;28;20051;-74
2023/07/17 00:07:09;;;;;;;26.08;4.05;;;16.50;99.90;;;;;;5073980;28;20398;-74
2023/07/17 00:09:35;;;;;;;24.98;5.22;;;;;;;;;;5073882;28;20036;-74
2023/07/17 00:12:03;;;;;;;23.45;5.15;;;;;;;;;;5073864;28;20032;-74
2023/07/17 00:14:29;;;;;;;35.92;5.18;;;;;;;;;;5074208;28;20098;-74
2023/07/17 00:16:55;;;;;;;29.17;4.65;;;;;;;;;;5074013;28;20082;-74
2023/07/17 00:19:21;;;;;;;23.55;4.95;;;16.60;99.90;;;;;;5073573;28;20042;-74
2023/07/17 00:21:47;;;;;;;18.80;4.88;;;;;;;;;;5073936;28;20029;-74
2023/07/17 00:24:13;;;;;;;28.60;4.53;;;;;;;;;;5073591;28;20029;-75
2023/07/17 00:26:39;;;;;;;18.30;4.47;;;17.80;99.90;;;;;;5073912;28;20039;-75
2023/07/17 00:29:23;;;;;;;32.40;5.13;;;17.50;99.90;;;;;;5073280;28;20115;-75
2023/07/17 00:31:50;;;;;;;18.70;3.97;;;18.50;99.90;;;;;;5090670;28;20424;-74
2023/07/17 00:34:16;;;;;;;23.33;4.55;;;17.90;99.90;;;;;;5073320;28;20045;-74
2023/07/17 00:36:42;;;;;;;28.33;3.97;;;18.20;99.90;;;;;;5073290;28;20055;-74
2023/07/17 00:39:10;;;;;;;26.35;4.93;;;;;;;;;;5073564;28;20036;-75
2023/07/17 00:41:36;;;;;;;33.90;4.78;;;;;;;;;;5073202;28;20056;-74
2023/07/17 00:44:03;;;;;;;23.50;4.88;;;;;;;;;;5073199;28;20040;-74
2023/07/17 00:46:30;;;;;;;27.55;5.30;;;17.40;99.90;;;;;;5074437;28;20051;-74
2023/07/17 00:48:57;;;;;;;23.33;5.40;;;;;;;;;;5073100;28;20129;-74
2023/07/17 00:51:23;;;;;;;27.13;4.53;;;;;;;;;;5072872;28;20037;-75
2023/07/17 00:53:50;;;;;;;38.55;4.90;;;;;;;;;;5073631;28;20119;-74
2023/07/17 00:56:16;;;;;;;30.60;5.32;;;;;;;;;;5073360;28;20425;-74
2023/07/17 00:58:42;;;;;;;30.63;5.10;;;;;;;;;;5072808;28;20388;-74
2023/07/17 01:01:09;;;;;;;30.85;5.32;;;17.30;99.70;;;;;;5072997;28;20084;-74
2023/07/17 01:03:35;;;;;;;21.60;4.88;;;;;;;;;;5056248;28;20040;-74
2023/07/17 01:06:02;;;;;;;23.98;5.22;;;;;;;;;;5072762;28;20044;-74
2023/07/17 01:08:28;;;;;;;33.70;5.30;;;;;;;;;;5073135;28;20098;-74
2023/07/17 01:10:55;;;;;;;32.65;5.47;;;17.60;99.90;;;;;;5072877;28;20428;-74
2023/07/17 01:13:21;;;;;;;23.05;4.93;;;;;;;;;;5073054;28;20056;-75
2023/07/17 01:15:47;;;;;;;32.75;5.63;;;16.30;99.90;;;;;;5072619;28;20036;-74
2023/07/17 01:18:13;;;;;;;36.22;5.28;;;;;;;;;;5073119;28;20093;-75
2023/07/17 01:20:39;;;;;;;25.42;4.93;;;18.20;99.90;;;;;;5072707;28;20079;-75
2023/07/17 01:23:04;;;;;;;22.83;4.78;;;16.60;99.90;;;;;;5072646;28;20048;-75
2023/07/17 01:25:31;;;;;;;26.70;5.28;;;;;;;;;;5088770;28;20067;-75
2023/07/17 01:27:57;;;;;;;29.23;5.55;;;;;;;;;;5072137;28;20115;-74
2023/07/17 01:30:23;;;;;;;26.20;5.32;;;18.20;99.90;;;;;;5072073;28;20032;-74
2023/07/17 01:32:49;;;;;;;27.13;5.47;;;;;;;;;;5089415;28;20076;-74
2023/07/17 01:35:15;;;;;;;28.02;4.95;;;;;;;;;;5071910;28;20067;-74
2023/07/17 01:37:42;;;;;;;29.58;5.78;;;;;;;;;;5055672;28;20052;-74
2023/07/17 01:40:09;;;;;;;30.88;5.68;;;;;;;;;;5072409;28;20044;-74
2023/07/17 01:42:35;;;;;;;41.42;6.28;;;;;;;;;;5072006;28;20036;-75
2023/07/17 01:45:02;;;;;;;30.35;6.50;;;;;;;;;;5072019;28;20043;-74
2023/07/17 01:47:28;;;;;;;35.78;7.05;;;;;;;;;;5072075;28;20758;-74
2023/07/17 01:49:54;;;;;;;29.73;5.88;;;16.20;99.90;;;;;;5072139;28;20037;-74
2023/07/17 01:52:20;;;;;;;30.33;5.40;;;;;;;;;;5071986;28;20040;-75
2023/07/17 01:54:45;;;;;;;40.33;6.45;;;17.10;99.90;;;;;;5055446;28;20389;-74
2023/07/17 01:57:11;;;;;;;26.58;5.85;;;;;;;;;;5088820;28;20032;-75
2023/07/17 01:59:37;;;;;;;35.30;6.13;;;;;;;;;;5072251;28;20044;-75
2023/07/17 02:02:03;;;;;;;43.03;6.95;;;17.60;99.90;;;;;;5071434;28;20508;-74
2023/07/17 02:04:29;;;;;;;28.67;5.35;;;;;;;;;;5071874;28;20064;-74
2023/07/17 02:06:55;;;;;;;31.73;5.43;;;;;;;;;;5071781;28;20111;-74
2023/07/17 02:09:21;;;;;;;40.22;5.90;;;;;;;;;;5071025;28;20044;-74
2023/07/17 02:11:48;;;;;;;40.08;5.38;;;;;;;;;;5071523;28;20120;-74
2023/07/17 02:14:14;;;;;;;34.88;5.65;;;;;;;;;;5038454;28;20532;-74
2023/07/17 02:16:39;;;;;;;40.17;6.25;;;15.80;99.90;;;;;;5072009;28;20066;-74
2023/07/17 02:19:06;;;;;;;35.42;5.68;;;;;;;;;;5071537;28;20470;-74
2023/07/17 02:21:33;;;;;;;26.60;5.95;;;;;;;;;;5054592;28;20040;-74
2023/07/17 02:23:59;;;;;;;43.45;6.93;;;;;;;;;;5071421;28;20056;-75
2023/07/17 02:26:25;;;;;;;36.13;6.55;;;15.80;99.90;;;;;;5068681;28;20037;-74
2023/07/17 02:28:51;;;;;;;45.15;7.40;;;;;;;;;;5071396;28;20037;-75
2023/07/17 02:31:17;;;;;;;35.42;5.90;;;;;;;;;;5071042;28;20040;-74
2023/07/17 02:33:43;;;;;;;33.40;6.90;;;;;;;;;;5070943;28;20041;-74
2023/07/17 02:36:10;;;;;;;34.03;6.85;;;;;;;;;;5070693;28;20068;-75
2023/07/17 02:38:36;;;;;;;36.55;6.82;;;;;;;;;;5088356;28;20041;-74
2023/07/17 02:41:02;;;;;;;39.33;6.72;;;;;;;;;;5071021;28;20139;-74
2023/07/17 02:43:28;;;;;;;45.97;7.50;;;;;;;;;;5071170;28;20123;-70
2023/07/17 02:45:54;;;;;;;37.22;5.95;;;;;;;;;;5070916;28;20059;-71
2023/07/17 02:48:20;;;;;;;47.50;6.85;;;;;;;;;;5071157;28;20040;-74
2023/07/17 02:50:50;;;;;;;43.13;6.57;;;16.50;99.90;;;;;;5071030;28;20033;-74
2023/07/17 02:53:16;;;;;;;36.17;6.03;;;;;;;;;;5070898;28;20051;-74
2023/07/17 02:55:43;;;;;;;39.10;6.25;;;;;;;;;;5070827;28;20097;-74
2023/07/17 02:58:09;;;;;;;35.80;6.20;;;;;;;;;;5073052;28;20473;-75
2023/07/17 03:00:35;;;;;;;50.53;7.50;;;;;;;;;;5084148;28;20032;-75
2023/07/17 03:03:01;;;;;;;49.40;6.90;;;;;;;;;;5037566;28;20119;-75
2023/07/17 03:05:27;;;;;;;52.53;7.68;;;;;;;;;;5070781;28;20416;-75
2023/07/17 03:07:54;;;;;;;41.85;7.25;;;;;;;;;;5070782;28;20045;-74
2023/07/17 03:10:21;;;;;;;44.38;6.57;;;;;;;;;;5070588;28;20052;-74
2023/07/17 03:12:47;;;;;;;48.45;8.10;;;16.50;99.90;;;;;;5054122;28;20041;-74
2023/07/17 03:15:13;;;;;;;44.13;7.43;;;17.60;99.90;;;;;;5070971;28;20036;-74
2023/07/17 03:17:39;;;;;;;50.25;7.18;;;;;;;;;;5070630;28;20037;-75
2023/07/17 03:20:06;;;;;;;53.03;8.05;;;;;;;;;;5070262;28;20091;-75
2023/07/17 03:22:32;;;;;;;50.78;7.65;;;;;;;;;;5070737;28;20036;-74
2023/07/17 03:24:58;;;;;;;56.33;7.60;;;;;;;;;;5070220;28;20041;-70
2023/07/17 03:27:24;;;;;;;42.35;8.90;;;;;;;;;;5069349;28;20040;-75
2023/07/17 03:29:50;;;;;;;49.03;6.93;;;;;;;;;;5069870;28;20028;-75
2023/07/17 03:32:16;;;;;;;45.03;8.73;;;;;;;;;;5053662;28;20032;-75
2023/07/17 03:34:42;;;;;;;49.38;7.18;;;;;;;;;;5070382;28;20045;-75
2023/07/17 03:37:09;;;;;;;50.53;8.05;;;;;;;;;;5053475;28;20048;-75
2023/07/17 03:39:35;;;;;;;45.20;7.18;;;;;;;;;;5070462;28;20521;-74
2023/07/17 03:42:01;;;;;;;55.65;8.80;;;;;;;;;;5052894;28;20178;-74
2023/07/17 03:44:27;;;;;;;56.42;7.68;;;;;;;;;;5053232;28;20037;-74
2023/07/17 03:46:53;;;;;;;48.30;8.73;;;;;;;;;;5070475;28;20032;-74
2023/07/17 03:49:19;;;;;;;48.88;7.13;;;;;;;;;;5070343;28;20044;-74
2023/07/17 03:51:45;;;;;;;45.45;8.88;;;;;;;;;;5053979;28;20155;-75
2023/07/17 03:54:11;;;;;;;59.53;9.38;;;;;;;;;;5070173;28;20051;-74
2023/07/17 03:56:40;;;;;;;43.85;8.07;;;;;;;;;;5070860;28;20386;-74
2023/07/17 03:59:06;;;;;;;50.63;8.15;;;;;;;;;;5070221;28;20047;-75
2023/07/17 04:01:32;;;;;;;55.63;8.48;;;;;;;;;;5070179;28;20067;-74
2023/07/17 04:03:58;;;;;;;50.03;7.72;;;;;;;;;;5070176;28;20134;-75
2023/07/17 04:06:24;;;;;;;67.65;8.45;;;;;;;;;;5070077;28;20041;-74
2023/07/17 04:08:50;;;;;;;51.35;10.68;;;;;;;;;;5070083;28;20036;-75
2023/07/17 04:11:16;;;;;;;64.15;8.65;;;;;;;;;;5070059;28;20482;-75
2023/07/17 04:13:44;;;;;;;43.90;7.50;;;;;;;;;;5069922;28;20040;-75
2023/07/17 04:16:10;;;;;;;59.10;8.32;;;;;;;;;;5070122;28;20052;-74
2023/07/17 04:18:36;;;;;;;50.78;8.20;;;;;;;;;;5069771;28;20043;-74
2023/07/17 04:21:02;;;;;;;70.22;9.65;;;;;;;;;;5069928;28;20401;-75
2023/07/17 04:23:28;;;;;;;55.50;8.63;;;;;;;;;;5069956;28;20115;-74
2023/07/17 04:25:54;;;;;;;77.85;9.43;;;;;;;;;;5053259;28;20187;-75
2023/07/17 04:28:20;;;;;;;40.67;7.45;;;;;;;;;;5069871;28;20056;-75
2023/07/17 04:30:47;;;;;;;53.58;8.80;;;;;;;;;;5070021;28;20040;-74
2023/07/17 04:33:13;;;;;;;40.45;8.23;;;;;;;;;;5072269;28;20036;-75
2023/07/17 04:35:39;;;;;;;48.97;8.07;;;;;;;;;;5073543;28;20049;-75
2023/07/17 04:38:05;;;;;;;48.53;8.00;;;;;;;;;;5073498;28;20516;-75
2023/07/17 04:40:31;;;;;;;50.50;8.93;;;;;;;;;;5073051;28;20090;-74
2023/07/17 04:43:01;;;;;;;55.30;7.82;;;;;;;;;;5073352;28;20421;-75
2023/07/17 04:45:27;;;;;;;50.08;7.88;;;;;;;;;;5056444;28;20037;-74
2023/07/17 04:47:53;;;;;;;45.30;8.45;;;;;;;;;;5073314;28;20037;-74
2023/07/17 04:50:19;;;;;;;62.72;7.88;;;;;;;;;;5073192;28;20063;-74
2023/07/17 04:52:45;;;;;;;37.47;8.55;;;;;;;;;;5073220;28;20047;-74
2023/07/17 04:55:12;;;;;;;45.72;8.20;;;;;;;;;;5073072;28;20036;-74
2023/07/17 04:57:38;;;;;;;50.15;8.20;;;;;;;;;;5073117;28;20507;-74
2023/07/17 05:00:05;;;;;;;57.65;9.55;;;;;;;;;;5073326;28;20032;-74
2023/07/17 05:02:31;;;;;;;67.40;8.55;;;;;;;;;;5072708;28;20056;-74
2023/07/17 05:04:57;;;;;;;43.08;7.88;;;;;;;;;;5071851;28;20037;-74
2023/07/17 05:07:23;;;;;;;47.47;8.02;;;;;;;;;;5073169;28;20033;-74
2023/07/17 05:09:49;;;;;;;42.55;7.53;;;;;;;;;;5072978;28;20037;-70
2023/07/17 05:12:15;;;;;;;43.47;8.02;;;;;;;;;;5039368;28;20041;-70
2023/07/17 05:14:41;;;;;;;56.72;8.30;;;;;;;;;;5072817;28;20119;-70
2023/07/17 05:17:07;;;;;;;34.55;8.45;;;;;;;;;;5072771;28;20029;-71
2023/07/17 05:19:34;;;;;;;39.97;8.65;;;;;;;;;;5072923;28;20123;-70
2023/07/17 05:22:00;;;;;;;45.78;8.13;;;;;;;;;;5072734;28;20549;-69
2023/07/17 05:24:26;;;;;;;35.40;8.20;;;;;;;;;;5072051;28;20074;-69
2023/07/17 05:26:52;;;;;;;43.67;8.30;;;;;;;;;;5072993;28;20028;-70
2023/07/17 05:29:18;;;;;;;39.50;8.30;;;;;;;;;;5055022;28;20098;-71
2023/07/17 05:31:44;;;;;;;55.60;9.05;;;;;;;;;;5073218;28;20403;-73
2023/07/17 05:34:10;;;;;;;35.47;8.45;;;;;;;;;;5072876;28;20040;-74
2023/07/17 05:36:36;;;;;;;34.60;8.23;;;;;;;;;;5072760;28;20139;-74
2023/07/17 05:39:03;;;;;;;27.10;7.85;;;15.80;99.90;;;;;;5073231;28;20070;-74
2023/07/17 05:41:28;;;;;;;31.00;7.85;;;17.00;99.90;;;;;;5085929;28;20490;-74
2023/07/17 05:43:54;;;;;;;27.50;7.88;;;;;;;;;;5070239;28;20045;-74
2023/07/17 05:46:20;;;;;;;27.83;6.88;;;;;;;;;;5036681;28;20044;-74
2023/07/17 05:48:46;;;;;;;28.50;6.25;;;;;;;;;;5067720;28;20043;-74
2023/07/17 05:51:13;;;;;;;29.95;6.45;;;;;;;;;;5077139;28;20067;-74
2023/07/17 05:53:39;;;;;;;28.60;7.13;;;;;;;;;;5080807;28;20033;-74
2023/07/17 05:56:05;;;;;;;37.80;7.88;;;;;;;;;;5080387;28;20044;-74
2023/07/17 05:58:31;;;;;;;33.10;7.47;;;;;;;;;;5093512;28;20481;-80
2023/07/17 06:00:57;;;;;;;35.50;7.53;;;;;;;;;;5085246;28;20052;-73
2023/07/17 06:03:24;;;;;;;33.22;8.25;;;;;;;;;;5087148;28;20039;-73
2023/07/17 06:05:50;;;;;;;34.67;7.90;;;;;;;;;;5076159;28;20046;-73
2023/07/17 06:08:16;;;;;;;24.65;6.10;;;;;;;;;;5073256;28;20089;-74
2023/07/17 06:10:46;;;;;;;25.80;5.85;;;16.40;99.90;;;;;;5076147;28;20132;-73
2023/07/17 06:13:12;;;;;;;22.75;6.28;;;;;;;;;;5071406;28;20046;-72
2023/07/17 06:15:39;;;;;;;29.70;6.78;;;;;;;;;;5075106;28;20146;-72
2023/07/17 06:18:05;;;;;;;24.92;6.05;;;;;;;;;;5072640;28;20067;-72
2023/07/17 06:20:31;;;;;;;27.85;7.28;;;;;;;;;;5072238;28;20093;-73
2023/07/17 06:22:57;;;;;;;28.58;6.90;;;;;;;;;;5074272;28;20398;-72
2023/07/17 06:25:23;;;;;;;23.77;6.40;;;;;;;;;;5075031;28;20047;-72
2023/07/17 06:27:49;;;;;;;23.55;6.13;;;;;;;;;;5072547;28;20094;-73
2023/07/17 06:30:16;;;;;;;28.40;6.07;;;;;;;;;;5074133;28;20389;-73
2023/07/17 06:32:42;;;;;;;22.92;6.25;;;;;;;;;;5088387;28;20039;-73
2023/07/17 06:35:08;;;;;;;24.60;5.85;;;;;;;;;;5069928;28;20513;-73
2023/07/17 06:37:34;;;;;;;28.45;6.63;;;;;;;;;;5071634;28;20113;-73
2023/07/17 06:40:00;;;;;;;25.83;6.38;;;;;;;;;;5071483;28;20461;-73
2023/07/17 06:42:26;;;;;;;27.10;6.05;;;;;;;;;;5072154;28;20046;-73
2023/07/17 06:44:53;;;;;;;27.30;5.82;;;;;;;;;;5055511;28;20375;-73
2023/07/17 06:47:19;;;;;;;29.17;6.28;;;;;;;;;;5072309;28;20502;-73
2023/07/17 06:49:45;;;;;;;26.80;5.55;;;;;;;;;;5075622;28;20054;-73
2023/07/17 06:52:11;;;;;;;31.13;6.18;;;;;;;;;;5075576;28;20040;-74
2023/07/17 06:54:37;;;;;;;25.10;5.85;;;;;;;;;;5073638;28;20131;-73
2023/07/17 06:57:03;;;;;;;25.58;5.60;;;;;;;;;;5038680;28;20032;-73
2023/07/17 06:59:29;;;;;;;28.27;5.63;;;;;;;;;;5071761;28;20103;-73
2023/07/17 07:01:55;;;;;;;24.83;5.55;;;;;;;;;;5088020;28;20075;-73
2023/07/17 07:04:21;;;;;;;21.13;5.03;;;;;;;;;;5070727;28;20067;-73
2023/07/17 07:06:47;;;;;;;28.02;5.60;;;;;;;;;;5054119;28;20037;-73
2023/07/17 07:09:14;;;;;;;21.70;5.97;;;;;;;;;;5070657;28;20036;-73
2023/07/17 07:11:40;;;;;;;21.05;5.95;;;;;;;;;;5070554;28;20044;-74
2023/07/17 07:14:06;;;;;;;22.20;5.88;;;;;;;;;;5072447;28;20097;-73
2023/07/17 07:16:32;;;;;;;26.48;4.95;;;;;;;;;;5053915;28;20041;-74
2023/07/17 07:18:58;;;;;;;23.08;5.70;;;;;;;;;;5045236;28;20040;-73
2023/07/17 07:21:24;;;;;;;17.65;4.90;;;;;;;;;;5070483;28;20078;-73
2023/07/17 07:23:50;;;;;;;25.35;5.95;;;;;;;;;;5070312;28;20036;-74
2023/07/17 07:26:16;;;;;;;24.98;5.63;;;;;;;;;;5052423;28;20497;-73
2023/07/17 07:28:42;;;;;;;33.90;6.40;;;;;;;;;;5071065;28;20419;-73
2023/07/17 07:31:08;;;;;;;26.80;6.20;;;;;;;;;;5055771;28;20390;-73
2023/07/17 07:33:36;;;;;;;27.85;6.22;;;;;;;;;;5070818;28;20032;-74
2023/07/17 07:36:02;;;;;;;22.08;5.30;;;;;;;;;;5053794;28;20060;-73
2023/07/17 07:38:29;;;;;;;22.20;5.43;;;;;;;;;;5074095;28;20052;-73
2023/07/17 07:40:55;;;;;;;24.42;6.38;;;;;;;;;;5074404;28;20044;-73
2023/07/17 07:43:21;;;;;;;25.65;6.35;;;;;;;;;;5055419;28;20119;-74
2023/07/17 07:45:47;;;;;;;28.60;7.07;;;;;;;;;;5071033;28;20036;-74
2023/07/17 07:48:13;;;;;;;23.67;5.75;;;;;;;;;;5070759;28;20036;-74
2023/07/17 07:50:39;;;;;;;26.25;5.85;;;;;;;;;;5069847;28;20428;-73
2023/07/17 07:53:05;;;;;;;22.15;5.32;;;;;;;;;;5071068;28;20043;-73
2023/07/17 07:55:31;;;;;;;26.13;5.47;;;;;;;;;;5070137;28;20044;-69
2023/07/17 07:57:57;;;;;;;16.35;4.95;;;;;;;;;;5070326;28;20041;-69
2023/07/17 08:00:24;;;;;;;19.48;4.85;;;;;;;;;;5071736;28;20049;-70
2023/07/17 08:02:50;;;;;;;20.27;5.05;;;;;;;;;;5070878;28;20506;-70
2023/07/17 08:05:16;;;;;;;22.05;4.75;;;;;;;;;;5053776;28;20048;-74
2023/07/17 08:07:42;;;;;;;23.55;4.90;;;;;;;;;;5073296;28;20032;-73
2023/07/17 08:10:08;;;;;;;23.48;5.53;;;17.30;99.90;;;;;;5057235;28;20041;-74
2023/07/17 08:12:34;;;;;;;22.00;5.05;;;;;;;;;;5075174;28;20124;-74
2023/07/17 08:15:00;;;;;;;22.83;5.22;;;;;;;;;;5075214;28;20040;-73
2023/07/17 08:17:26;;;;;;;28.52;5.03;;;;;;;;;;5058585;28;20044;-74
2023/07/17 08:19:52;;;;;;;23.30;5.32;;;;;;;;;;5058249;28;20059;-74
2023/07/17 08:22:18;;;;;;;20.58;5.05;;;;;;;;;;5075227;28;20052;-73
2023/07/17 08:24:45;;;;;;;23.25;5.43;;;;;;;;;;5074838;28;20050;-74
2023/07/17 08:27:11;;;;;;;19.23;4.93;;;;;;;;;;5058192;28;20048;-74
2023/07/17 08:29:37;;;;;;;21.70;5.05;;;;;;;;;;5075005;28;20044;-74
2023/07/17 08:32:03;;;;;;;21.05;4.25;;;18.80;99.90;;;;;;5074865;28;20123;-74
2023/07/17 08:34:28;;;;;;;20.33;5.80;;;19.10;99.90;;;;;;5078377;28;20127;-74
2023/07/17 08:36:54;;;;;;;18.38;5.13;;;18.90;99.90;;;;;;5094747;28;20056;-74
2023/07/17 08:39:20;;;;;;;22.58;5.30;;;;;;;;;;5085351;28;20033;-74
2023/07/17 08:41:47;;;;;;;22.27;5.38;;;;;;;;;;5074776;28;20043;-74
2023/07/17 08:44:16;;;;;;;27.15;5.85;;;18.50;99.90;;;;;;5074424;28;20036;-74
2023/07/17 08:46:42;;;;;;;19.65;6.15;;;;;;;;;;5073801;28;20102;-74
2023/07/17 08:49:09;;;;;;;23.40;5.40;;;;;;;;;;5074654;28;20045;-74
2023/07/17 08:51:35;;;;;;;28.38;5.65;;;;;;;;;;5074666;28;20044;-74
2023/07/17 08:54:05;;;;;;;25.55;4.88;;;;;;;;;;5073266;28;20044;-74
2023/07/17 08:56:32;;;;;;;29.30;6.07;;;18.60;98.60;;;;;;5073501;28;20071;-74
2023/07/17 08:58:58;;;;;;;20.10;5.32;;;;;;;;;;5074572;28;20063;-73
2023/07/17 09:01:24;;;;;;;21.77;5.57;;;18.30;99.90;;;;;;5057562;28;20538;-74
2023/07/17 09:03:51;;;;;;;26.20;5.40;;;18.90;98.80;;;;;;5074192;28;20044;-74
2023/07/17 09:06:23;;;;;;;23.02;4.75;;;18.70;98.90;;;;;;5074011;28;20044;-74
2023/07/17 09:08:49;;;;;;;21.25;4.57;;;;;;;;;;5057366;28;20036;-74
2023/07/17 09:11:15;;;;;;;17.25;4.03;;;;;;;;;;5074114;28;20450;-74
2023/07/17 09:13:45;;;;;;;24.52;3.92;;;19.60;99.90;;;;;;5057637;28;20086;-74
2023/07/17 09:16:19;;;;;;;22.88;4.85;;;19.20;96.70;;;;;;5074288;28;20436;-74
2023/07/17 09:18:50;;;;;;;28.13;6.20;;;19.50;97.90;;;;;;5073835;28;20083;-74
2023/07/17 09:21:20;;;;;;;28.52;5.38;;;19.50;99.90;;;;;;5075712;28;20153;-74
2023/07/17 09:23:48;;;;;;;18.48;5.00;;;19.30;99.90;;;;;;5073896;28;20098;-74
2023/07/17 09:26:15;;;;;;;23.92;4.63;;;19.90;99.90;;;;;;5073951;28;20098;-74
2023/07/17 09:28:51;;;;;;;20.05;4.68;;;19.80;99.90;;;;;;5074125;28;20549;-74
2023/07/17 09:31:30;;;;;;;24.02;5.15;;;19.00;99.90;;;;;;5073730;28;20045;-74
2023/07/17 09:33:58;;;;;;;18.17;4.57;;;18.60;99.90;;;;;;5093568;28;20040;-75
2023/07/17 09:36:24;;;;;;;17.70;4.88;;;18.00;99.90;;;;;;5093773;28;20074;-74
2023/07/17 09:38:52;;;;;;;27.83;5.68;;;18.00;99.90;;;;;;5094147;28;20544;-74
2023/07/17 09:41:28;;;;;;;26.92;5.95;;;19.50;96.90;;;;;;5094139;28;20054;-74
2023/07/17 09:44:03;;;;;;;26.08;5.03;;;;;;;;;;5093699;28;20089;-74
2023/07/17 09:46:30;;;;;;;21.67;5.00;;;19.20;97.10;;;;;;5093557;28;20042;-74
2023/07/17 09:48:57;;;;;;;25.45;5.22;;;20.10;99.90;;;;;;5076876;28;20126;-74
2023/07/17 09:51:23;;;;;;;29.35;5.50;;;20.20;99.90;;;;;;5093830;28;20401;-74
2023/07/17 09:53:50;;;;;;;37.15;6.55;;;;;;;;;;5093460;28;20047;-74
2023/07/17 09:56:18;;;;;;;24.00;5.35;;;19.80;96.30;;;;;;5093496;28;20123;-74
2023/07/17 09:58:50;;;;;;;20.80;4.75;;;20.00;96.30;;;;;;5093412;28;20137;-75
2023/07/17 10:01:19;;;;;;;25.85;5.45;;;19.90;99.90;;;;;;5093626;28;20101;-75
2023/07/17 10:03:47;;;;;;;25.50;5.28;;;20.30;95.50;;;;;;5093146;28;20489;-75
2023/07/17 10:06:14;;;;;;;28.98;7.30;;;20.30;95.40;;;;;;5083768;28;20051;-74
2023/07/17 10:08:43;;;;;;;39.58;6.70;;;19.50;99.30;;;;;;5073009;28;20046;-74
2023/07/17 10:11:09;;;;;;;36.10;6.25;;;19.90;99.90;;;;;;5072952;28;20119;-74
2023/07/17 10:13:35;;;;;;;19.75;5.18;;;;;;;;;;5072875;28;20086;-74
2023/07/17 10:16:01;;;;;;;21.63;5.78;;;20.90;99.90;;;;;;5039805;28;20044;-74
2023/07/17 10:18:30;;;;;;;23.90;5.18;;;20.30;94.90;;;;;;5072552;28;20044;-75
2023/07/17 10:20:56;;;;;;;20.00;5.60;;;;;;;;;;5073127;28;20075;-71
2023/07/17 10:23:24;;;;;;;23.38;6.32;;;20.20;96.80;;;;;;5072068;28;20052;-71
2023/07/17 10:25:50;;;;;;;21.35;5.65;;;20.80;96.80;;;;;;5055339;28;20469;-70
2023/07/17 10:28:30;;;;;;;21.63;5.65;;;20.30;94.80;;;;;;5056340;28;20086;-70
2023/07/17 10:31:11;;;;;;;32.33;6.13;;;19.60;98.30;;;;;;5071931;28;20045;-70
2023/07/17 10:33:38;;;;;;;22.77;6.07;;;20.60;99.80;;;;;;5071854;28;20046;-70
2023/07/17 10:36:04;;;;;;;31.30;5.97;;;20.00;97.90;;;;;;5071857;28;20132;-70
2023/07/17 10:38:36;;;;;;;24.08;6.47;;;20.90;97.40;;;;;;5055344;28;20541;-70
2023/07/17 10:41:14;;;;;;;35.63;8.50;;;20.70;93.40;;;;;;5071940;28;20048;-70
2023/07/17 10:43:50;;;;;;;32.63;6.72;;;21.50;99.00;;;;;;5072547;28;20139;-70
2023/07/17 10:46:16;;;;;;;19.27;6.00;;;21.50;97.40;;;;;;5055384;28;20386;-70
2023/07/17 10:48:42;;;;;;;28.30;5.70;;;;;;;;;;5089006;28;20044;-70
2023/07/17 10:51:08;;;;;;;19.75;5.20;;;21.40;94.00;;;;;;5072228;28;20456;-70
2023/07/17 10:53:34;;;;;;;23.02;5.65;;;;;;;;;;5055685;28;20037;-71
2023/07/17 10:56:00;;;;;;;27.95;6.78;;;;;;;;;;5054344;28;20064;-71
2023/07/17 10:58:26;;;;;;;26.98;5.78;;;21.60;94.70;;;;;;5068471;28;20041;-71
2023/07/17 11:00:52;;;;;;;28.45;6.15;;;;;;;;;;5065029;28;20051;-71
2023/07/17 11:03:22;;;;;;;21.48;5.00;;;20.90;94.60;;;;;;5071955;28;21162;-71
2023/07/17 11:05:49;;;;;;;31.65;7.55;;;19.50;92.70;;;;;;5071452;28;20393;-71
2023/07/17 11:08:15;;;;;;;26.20;6.55;;;;;;;;;;5088862;28;20470;-71
2023/07/17 11:10:43;;;;;;;27.77;7.13;;;20.70;95.10;;;;;;5071239;28;20490;-71
2023/07/17 11:13:09;;;;;;;25.45;6.13;;;20.80;92.60;;;;;;5055236;28;20040;-72
2023/07/17 11:15:36;;;;;;;28.60;5.32;;;21.00;97.80;;;;;;5054890;28;20485;-71
2023/07/17 11:18:04;;;;;;;21.70;5.97;;;21.30;92.60;;;;;;5071847;28;20044;-71
2023/07/17 11:20:31;;;;;;;27.50;5.97;;;20.30;92.10;;;;;;5071599;28;20037;-71
2023/07/17 11:22:57;;;;;;;31.88;5.70;;;21.50;97.40;;;;;;5071567;28;20048;-70
2023/07/17 11:25:33;;;;;;;23.65;6.13;;;21.30;91.20;;;;;;5072101;28;20037;-70
2023/07/17 11:28:00;;;;;;;29.30;5.90;;;21.10;92.30;;;;;;5071726;28;20041;-70
2023/07/17 11:30:28;;;;;;;29.30;6.32;;;20.70;92.50;;;;;;5071946;28;20048;-70
2023/07/17 11:32:57;;;;;;;26.27;5.70;;;21.60;93.40;;;;;;5071399;28;20493;-70
2023/07/17 11:35:23;;;;;;;27.63;5.95;;;;;;;;;;5070950;28;20561;-70
2023/07/17 11:37:49;;;;;;;21.60;6.00;;;;;;;;;;5069923;28;20041;-71
2023/07/17 11:40:15;;;;;;;25.65;5.68;;;;;;;;;;5052490;28;20506;-69
2023/07/17 11:43:02;;;;;;;22.58;4.88;;;21.00;91.30;;;;;;5070810;28;20047;-70
2023/07/17 11:45:28;;;;;;;27.17;5.38;;;20.70;97.10;;;;;;5058370;28;20044;-71
2023/07/17 11:47:56;;;;;;;20.92;4.90;;;21.30;97.10;;;;;;5074801;28;20501;-71
2023/07/17 11:50:27;;;;;;;22.08;5.85;;;21.90;96.80;;;;;;5047374;28;20456;-70
2023/07/17 11:53:12;;;;;;;29.95;5.93;;;21.30;90.30;;;;;;5077039;28;20040;-75
2023/07/17 11:55:41;;;;;;;31.40;7.43;;;20.60;95.40;;;;;;5071838;28;20040;-74
2023/07/17 11:58:16;;;;;;;25.73;6.38;;;21.70;95.10;;;;;;5088904;28;20540;-74
2023/07/17 12:00:43;;;;;;;27.00;6.43;;;21.50;90.10;;;;;;5075134;28;20041;-75
2023/07/17 12:03:09;;;;;;;24.98;5.95;;;21.40;95.20;;;;;;5075201;28;20040;-75
2023/07/17 12:05:39;;;;;;;16.50;5.07;;;21.80;88.30;;;;;;5075523;28;20053;-75
2023/07/17 12:08:05;;;;;;;30.73;5.50;;;22.10;88.20;;;;;;5076109;28;20037;-74
2023/07/17 12:10:32;;;;;;;16.88;4.90;;;21.50;89.00;;;;;;5057730;28;20040;-75
2023/07/17 12:12:58;;;;;;;16.02;4.57;;;;;;;;;;5056948;28;20107;-74
2023/07/17 12:15:25;;;;;;;27.63;5.38;;;22.00;94.20;;;;;;5057691;28;20046;-75
2023/07/17 12:17:51;;;;;;;23.25;5.32;;;22.60;89.50;;;;;;5057179;28;20493;-74
2023/07/17 12:20:18;;;;;;;24.73;5.47;;;21.60;90.50;;;;;;5073818;28;20037;-74
2023/07/17 12:22:52;;;;;;;23.33;5.93;;;22.00;86.20;;;;;;5057195;28;20040;-74
2023/07/17 12:25:19;;;;;;;27.42;6.30;;;;;;;;;;5073877;28;20502;-75
2023/07/17 12:27:46;;;;;;;14.55;5.32;;;21.20;94.30;;;;;;5074561;28;20075;-70
2023/07/17 12:30:13;;;;;;;28.50;5.85;;;22.40;94.40;;;;;;5074264;28;20063;-70
2023/07/17 12:32:39;;;;;;;26.00;6.07;;;;;;;;;;5057080;28;20493;-70
2023/07/17 12:35:09;;;;;;;17.58;5.47;;;22.70;90.20;;;;;;5073355;28;20070;-71
2023/07/17 12:37:35;;;;;;;16.35;5.60;;;21.50;89.90;;;;;;5071236;28;20051;-71
2023/07/17 12:40:01;;;;;;;21.75;5.13;;;;;;;;;;5073392;28;20494;-70
2023/07/17 12:42:27;;;;;;;22.90;5.47;;;21.70;92.80;;;;;;5073234;28;20090;-70
2023/07/17 12:44:53;;;;;;;14.18;5.28;;;;;;;;;;5056583;28;20473;-70
2023/07/17 12:47:19;;;;;;;27.17;5.13;;;21.90;91.60;;;;;;5073520;28;20036;-70
2023/07/17 12:49:45;;;;;;;20.67;4.65;;;22.40;92.30;;;;;;5056208;28;20546;-70
2023/07/17 12:52:11;;;;;;;15.77;4.32;;;;;;;;;;5073401;28;20044;-71
2023/07/17 12:54:37;;;;;;;28.92;5.25;;;22.80;92.20;;;;;;5072520;28;20038;-71
2023/07/17 12:57:04;;;;;;;18.55;4.68;;;22.60;85.00;;;;;;5073233;28;20032;-70
2023/07/17 12:59:30;;;;;;;19.73;4.90;;;;;;;;;;5056269;28;20119;-70
2023/07/17 13:01:56;;;;;;;20.85;4.82;;;23.50;85.90;;;;;;5056515;28;20072;-71
2023/07/17 13:04:22;;;;;;;21.50;5.80;;;;;;;;;;5089314;28;20094;-71
2023/07/17 13:06:48;;;;;;;19.17;4.38;;;22.20;92.10;;;;;;5072882;28;20524;-70
2023/07/17 13:09:15;;;;;;;23.42;4.50;;;;;;;;;;5058188;28;20047;-70
2023/07/17 13:11:41;;;;;;;19.35;4.65;;;;;;;;;;5073309;28;20032;-70
2023/07/17 13:14:08;;;;;;;25.25;5.63;;;23.30;92.50;;;;;;5072656;28;20036;-70
2023/07/17 13:16:35;;;;;;;18.08;5.10;;;23.30;91.90;;;;;;5072842;28;20080;-70
2023/07/17 13:19:01;;;;;;;19.55;5.32;;;22.70;91.90;;;;;;5072786;28;20032;-70
2023/07/17 13:21:27;;;;;;;22.50;5.50;;;23.10;84.40;;;;;;5074206;28;20389;-70
2023/07/17 13:23:53;;;;;;;15.88;4.18;;;23.10;82.30;;;;;;5072291;28;20539;-70
2023/07/17 13:26:27;;;;;;;22.35;4.88;;;23.70;91.90;;;;;;5056051;28;20425;-70
2023/07/17 13:28:53;;;;;;;19.02;5.07;;;22.70;88.50;;;;;;5089017;28;20040;-70
2023/07/17 13:31:19;;;;;;;13.82;4.05;;;23.50;91.40;;;;;;5072771;28;20040;-70
2023/07/17 13:33:44;;;;;;;14.93;4.32;;;23.70;91.40;;;;;;5071892;28;20037;-70
2023/07/17 13:36:10;;;;;;;18.63;3.92;;;;;;;;;;5088702;28;20069;-70
2023/07/17 13:38:36;;;;;;;12.88;4.07;;;22.50;91.30;;;;;;5072071;28;20037;-69
2023/07/17 13:41:02;;;;;;;22.67;5.25;;;;;;;;;;5089558;28;20051;-69
2023/07/17 13:43:28;;;;;;;21.58;4.30;;;;;;;;;;5071604;28;20127;-75
2023/07/17 13:45:54;;;;;;;17.80;4.80;;;;;;;;;;5072211;28;20036;-75